TUI447 DTNH-LIMC
Flight info
| Callsign | TUI447 |
|---|---|
| Flight time | N/A |
| Altitude | 34000 |
| Route | VAXAL1C VAXAL UA411 TUC UM733 OSMAR DCT PIRIX DCT UPDUT DCT CORSI DCT OKROK DCT AKUTI DCT TORTU DCT ANAKI DCT DEVOX |
| Aircraft | B38M/M-SDE1FGHILORVWXY/HB1 |
Departure
| Time | 2026-04-29 18:03 |
|---|---|
| Airport | Enfidha - Hammamet International Airport (DTNH) |
Arrival
| Time | N/A |
|---|---|
| Airport | Milan Malpensa International Airport (LIMC) |
| Time | Latitude | Longitude | Altitude | Speed | Heading |
|---|---|---|---|---|---|
| 2026-04-29 17:39 | 36.08110 | 10.43868 | 18 ft | 0 kts | 29° |
| 2026-04-29 17:54 | 36.08094 | 10.43858 | 18 ft | 4 kts | 18° |
| 2026-04-29 17:54 | 36.08073 | 10.43854 | 22 ft | 4 kts | 358° |
| 2026-04-29 17:55 | 36.08052 | 10.43864 | 27 ft | 4 kts | 301° |
| 2026-04-29 17:55 | 36.08046 | 10.43894 | 27 ft | 4 kts | 269° |
| 2026-04-29 17:55 | 36.08048 | 10.43926 | 28 ft | 3 kts | 262° |
| 2026-04-29 17:55 | 36.08052 | 10.43952 | 29 ft | 4 kts | 251° |
| 2026-04-29 17:56 | 36.08064 | 10.43982 | 31 ft | 4 kts | 232° |
| 2026-04-29 17:56 | 36.08080 | 10.44004 | 28 ft | 1 kts | 225° |
| 2026-04-29 17:56 | 36.08081 | 10.44004 | 28 ft | 0 kts | 225° |
| 2026-04-29 17:58 | 36.08068 | 10.43988 | 31 ft | 8 kts | 225° |
| 2026-04-29 17:58 | 36.08044 | 10.43899 | 29 ft | 12 kts | 268° |
| 2026-04-29 17:58 | 36.08044 | 10.43781 | 26 ft | 17 kts | 271° |
| 2026-04-29 17:59 | 36.08045 | 10.43597 | 28 ft | 24 kts | 270° |
| 2026-04-29 17:59 | 36.08045 | 10.43375 | 28 ft | 27 kts | 270° |
| 2026-04-29 17:59 | 36.08010 | 10.43204 | 27 ft | 18 kts | 204° |
| 2026-04-29 17:59 | 36.07887 | 10.43194 | 27 ft | 18 kts | 179° |
| 2026-04-29 18:00 | 36.07800 | 10.43193 | 28 ft | 19 kts | 186° |
| 2026-04-29 18:00 | 36.07750 | 10.43069 | 30 ft | 18 kts | 269° |
| 2026-04-29 18:00 | 36.07749 | 10.42919 | 34 ft | 17 kts | 269° |
| 2026-04-29 18:00 | 36.07749 | 10.42767 | 34 ft | 18 kts | 270° |
| 2026-04-29 18:01 | 36.07750 | 10.42602 | 35 ft | 20 kts | 270° |
| 2026-04-29 18:01 | 36.07751 | 10.42431 | 36 ft | 20 kts | 270° |
| 2026-04-29 18:01 | 36.07749 | 10.42255 | 34 ft | 12 kts | 252° |
| 2026-04-29 18:01 | 36.07675 | 10.42215 | 35 ft | 13 kts | 184° |
| 2026-04-29 18:02 | 36.07586 | 10.42221 | 34 ft | 6 kts | 168° |
| 2026-04-29 18:02 | 36.07584 | 10.42228 | 34 ft | 1 kts | 100° |
| 2026-04-29 18:02 | 36.07584 | 10.42355 | 32 ft | 46 kts | 89° |
| 2026-04-29 18:02 | 36.07580 | 10.43109 | 35 ft | 126 kts | 90° |
| 2026-04-29 18:03 | 36.07598 | 10.44450 | 200 ft | 179 kts | 89° |
| 2026-04-29 18:03 | 36.07620 | 10.46114 | 866 ft | 203 kts | 88° |
| 2026-04-29 18:03 | 36.08006 | 10.47733 | 1799 ft | 193 kts | 56° |
| 2026-04-29 18:03 | 36.09071 | 10.48647 | 1970 ft | 188 kts | 13° |
| 2026-04-29 18:04 | 36.10343 | 10.48606 | 2104 ft | 184 kts | 338° |
| 2026-04-29 18:04 | 36.11512 | 10.47987 | 2334 ft | 183 kts | 336° |
| 2026-04-29 18:04 | 36.12707 | 10.47427 | 2551 ft | 184 kts | 336° |
| 2026-04-29 18:04 | 36.13911 | 10.46872 | 2732 ft | 184 kts | 337° |
| 2026-04-29 18:05 | 36.15123 | 10.46343 | 2894 ft | 187 kts | 344° |
| 2026-04-29 18:05 | 36.16398 | 10.46431 | 3498 ft | 186 kts | 10° |
| 2026-04-29 18:05 | 36.17733 | 10.46780 | 3991 ft | 206 kts | 9° |
| 2026-04-29 18:05 | 36.19209 | 10.47182 | 4470 ft | 228 kts | 10° |
| 2026-04-29 18:06 | 36.20839 | 10.47654 | 4908 ft | 254 kts | 11° |
| 2026-04-29 18:06 | 36.22565 | 10.48173 | 5862 ft | 254 kts | 11° |
| 2026-04-29 18:06 | 36.24305 | 10.48704 | 6729 ft | 264 kts | 11° |
| 2026-04-29 18:06 | 36.26147 | 10.49275 | 7328 ft | 282 kts | 12° |
| 2026-04-29 18:07 | 36.28093 | 10.49686 | 8169 ft | 282 kts | 355° |
| 2026-04-29 18:07 | 36.29990 | 10.49165 | 9130 ft | 281 kts | 337° |
| 2026-04-29 18:07 | 36.31850 | 10.48334 | 10009 ft | 286 kts | 337° |
| 2026-04-29 18:07 | 36.33727 | 10.47482 | 10637 ft | 300 kts | 337° |
| 2026-04-29 18:08 | 36.35750 | 10.46549 | 11027 ft | 320 kts | 337° |
| 2026-04-29 18:08 | 36.37895 | 10.45549 | 11421 ft | 338 kts | 337° |
| 2026-04-29 18:08 | 36.40140 | 10.44494 | 11938 ft | 350 kts | 337° |
| 2026-04-29 18:08 | 36.42426 | 10.43417 | 12727 ft | 353 kts | 337° |
| 2026-04-29 18:09 | 36.44736 | 10.42325 | 13469 ft | 358 kts | 337° |
| 2026-04-29 18:09 | 36.47077 | 10.41217 | 14182 ft | 361 kts | 337° |
| 2026-04-29 18:09 | 36.49442 | 10.40098 | 14752 ft | 368 kts | 337° |
| 2026-04-29 18:09 | 36.51833 | 10.38965 | 14924 ft | 367 kts | 337° |
| 2026-04-29 18:10 | 36.54218 | 10.37835 | 14996 ft | 367 kts | 336° |
| 2026-04-29 18:10 | 36.56598 | 10.36706 | 14989 ft | 365 kts | 336° |
| 2026-04-29 18:10 | 36.58972 | 10.35580 | 14986 ft | 365 kts | 336° |
| 2026-04-29 18:10 | 36.61343 | 10.34453 | 14990 ft | 365 kts | 336° |
| 2026-04-29 18:11 | 36.63714 | 10.33326 | 14985 ft | 365 kts | 336° |
| 2026-04-29 18:11 | 36.66084 | 10.32200 | 14982 ft | 364 kts | 336° |
| 2026-04-29 18:11 | 36.68457 | 10.31070 | 14973 ft | 365 kts | 336° |
| 2026-04-29 18:11 | 36.70797 | 10.29955 | 14970 ft | 365 kts | 336° |
| 2026-04-29 18:12 | 36.73164 | 10.28828 | 14965 ft | 365 kts | 336° |
| 2026-04-29 18:12 | 36.75534 | 10.27698 | 14965 ft | 365 kts | 336° |
| 2026-04-29 18:12 | 36.77905 | 10.26566 | 14966 ft | 365 kts | 336° |
| 2026-04-29 18:12 | 36.80275 | 10.25435 | 14977 ft | 364 kts | 336° |
| 2026-04-29 18:13 | 36.82635 | 10.24308 | 14967 ft | 363 kts | 336° |
| 2026-04-29 18:13 | 36.85000 | 10.23203 | 14959 ft | 364 kts | 340° |
| 2026-04-29 18:13 | 36.87473 | 10.22470 | 14976 ft | 365 kts | 344° |
| 2026-04-29 18:13 | 36.89939 | 10.21742 | 14969 ft | 365 kts | 343° |
| 2026-04-29 18:14 | 36.92406 | 10.20994 | 14967 ft | 365 kts | 343° |
| 2026-04-29 18:14 | 36.94870 | 10.20234 | 14970 ft | 365 kts | 343° |
| 2026-04-29 18:14 | 36.97338 | 10.19465 | 14968 ft | 365 kts | 343° |
| 2026-04-29 18:14 | 36.99804 | 10.18694 | 14968 ft | 365 kts | 343° |
| 2026-04-29 18:15 | 37.02270 | 10.17921 | 14965 ft | 365 kts | 343° |
| 2026-04-29 18:15 | 37.04735 | 10.17148 | 14973 ft | 365 kts | 343° |
| 2026-04-29 18:15 | 37.07197 | 10.16375 | 14968 ft | 365 kts | 343° |
| 2026-04-29 18:15 | 37.09663 | 10.15600 | 14967 ft | 365 kts | 343° |
| 2026-04-29 18:16 | 37.12127 | 10.14826 | 14967 ft | 365 kts | 343° |
| 2026-04-29 18:16 | 37.14592 | 10.14050 | 14961 ft | 365 kts | 343° |
| 2026-04-29 18:16 | 37.17054 | 10.13275 | 14959 ft | 365 kts | 343° |
| 2026-04-29 18:16 | 37.19519 | 10.12499 | 14955 ft | 365 kts | 343° |
| 2026-04-29 18:17 | 37.21982 | 10.11722 | 14954 ft | 365 kts | 343° |
| 2026-04-29 18:17 | 37.24446 | 10.10944 | 14955 ft | 365 kts | 343° |
| 2026-04-29 18:17 | 37.26907 | 10.10168 | 14963 ft | 365 kts | 343° |
| 2026-04-29 18:17 | 37.29370 | 10.09390 | 14971 ft | 365 kts | 342° |
| 2026-04-29 18:18 | 37.31835 | 10.08611 | 14969 ft | 365 kts | 342° |
| 2026-04-29 18:18 | 37.34296 | 10.07832 | 14967 ft | 365 kts | 342° |
| 2026-04-29 18:18 | 37.36759 | 10.07053 | 14968 ft | 365 kts | 342° |
| 2026-04-29 18:18 | 37.39231 | 10.06270 | 15363 ft | 367 kts | 342° |
| 2026-04-29 18:19 | 37.41711 | 10.05484 | 16104 ft | 368 kts | 342° |
| 2026-04-29 18:19 | 37.44209 | 10.04691 | 16729 ft | 373 kts | 342° |
| 2026-04-29 18:19 | 37.46734 | 10.03890 | 17373 ft | 376 kts | 342° |
| 2026-04-29 18:19 | 37.49277 | 10.03082 | 18018 ft | 379 kts | 342° |
| 2026-04-29 18:20 | 37.51845 | 10.02266 | 18596 ft | 382 kts | 342° |
| 2026-04-29 18:20 | 37.54429 | 10.01444 | 19135 ft | 385 kts | 342° |
| 2026-04-29 18:20 | 37.57044 | 10.00612 | 19641 ft | 389 kts | 342° |
| 2026-04-29 18:20 | 37.59682 | 9.99772 | 20163 ft | 393 kts | 342° |
| 2026-04-29 18:21 | 37.62345 | 9.98923 | 20664 ft | 396 kts | 342° |
| 2026-04-29 18:21 | 37.65027 | 9.98067 | 21158 ft | 400 kts | 342° |
| 2026-04-29 18:21 | 37.67733 | 9.97204 | 21661 ft | 403 kts | 342° |
| 2026-04-29 18:21 | 37.70463 | 9.96332 | 22150 ft | 406 kts | 342° |
| 2026-04-29 18:22 | 37.73216 | 9.95452 | 22631 ft | 410 kts | 342° |
| 2026-04-29 18:22 | 37.75994 | 9.94567 | 23122 ft | 413 kts | 342° |
| 2026-04-29 18:22 | 37.78796 | 9.93676 | 23577 ft | 417 kts | 342° |
| 2026-04-29 18:22 | 37.81587 | 9.92786 | 23926 ft | 421 kts | 342° |
| 2026-04-29 18:23 | 37.84436 | 9.91878 | 24334 ft | 423 kts | 342° |
| 2026-04-29 18:23 | 37.87305 | 9.90963 | 24722 ft | 426 kts | 342° |
| 2026-04-29 18:23 | 37.90186 | 9.90043 | 25115 ft | 429 kts | 342° |
| 2026-04-29 18:23 | 37.93087 | 9.89117 | 25499 ft | 432 kts | 342° |
| 2026-04-29 18:24 | 37.96007 | 9.88183 | 25879 ft | 434 kts | 341° |
| 2026-04-29 18:24 | 37.98940 | 9.87245 | 26247 ft | 437 kts | 341° |
| 2026-04-29 18:24 | 38.01902 | 9.86297 | 26614 ft | 439 kts | 341° |
| 2026-04-29 18:24 | 38.04878 | 9.85343 | 26971 ft | 442 kts | 341° |
| 2026-04-29 18:25 | 38.07866 | 9.84385 | 27324 ft | 445 kts | 341° |
| 2026-04-29 18:25 | 38.10870 | 9.83420 | 27675 ft | 447 kts | 341° |
| 2026-04-29 18:25 | 38.13902 | 9.82447 | 27986 ft | 450 kts | 341° |
| 2026-04-29 18:25 | 38.16944 | 9.81468 | 28305 ft | 453 kts | 341° |
| 2026-04-29 18:26 | 38.20008 | 9.80482 | 28652 ft | 455 kts | 341° |
| 2026-04-29 18:26 | 38.23087 | 9.79491 | 28982 ft | 458 kts | 341° |
| 2026-04-29 18:26 | 38.26186 | 9.78495 | 29313 ft | 460 kts | 341° |
| 2026-04-29 18:26 | 38.29302 | 9.77499 | 29609 ft | 463 kts | 341° |
| 2026-04-29 18:27 | 38.32434 | 9.76495 | 29937 ft | 466 kts | 341° |
| 2026-04-29 18:27 | 38.35586 | 9.75483 | 30202 ft | 468 kts | 341° |
| 2026-04-29 18:27 | 38.38752 | 9.74466 | 30474 ft | 470 kts | 341° |
| 2026-04-29 18:27 | 38.41920 | 9.73448 | 30776 ft | 470 kts | 341° |
| 2026-04-29 18:28 | 38.45098 | 9.72425 | 31168 ft | 469 kts | 341° |
| 2026-04-29 18:28 | 38.48259 | 9.71407 | 31555 ft | 468 kts | 341° |
| 2026-04-29 18:28 | 38.51411 | 9.70392 | 31962 ft | 467 kts | 341° |
| 2026-04-29 18:28 | 38.54557 | 9.69376 | 32352 ft | 466 kts | 341° |
| 2026-04-29 18:29 | 38.57695 | 9.68363 | 32713 ft | 465 kts | 341° |
| 2026-04-29 18:29 | 38.59775 | 9.67690 | 32958 ft | 464 kts | 340° |
| 2026-04-29 18:29 | 38.63957 | 9.66338 | 33443 ft | 463 kts | 340° |
| 2026-04-29 18:29 | 38.67079 | 9.65327 | 33807 ft | 462 kts | 340° |
| 2026-04-29 18:30 | 38.70202 | 9.64315 | 34002 ft | 463 kts | 340° |
| 2026-04-29 18:30 | 38.76394 | 9.62307 | 33993 ft | 460 kts | 340° |
| 2026-04-29 18:31 | 38.82607 | 9.60287 | 33994 ft | 461 kts | 340° |
| 2026-04-29 18:31 | 38.88824 | 9.58263 | 33993 ft | 461 kts | 340° |
| 2026-04-29 18:32 | 38.95082 | 9.56388 | 33995 ft | 462 kts | 341° |
| 2026-04-29 18:32 | 39.04432 | 9.53576 | 34000 ft | 459 kts | 341° |
| 2026-04-29 18:33 | 39.10650 | 9.51700 | 34005 ft | 459 kts | 341° |
| 2026-04-29 18:33 | 39.16882 | 9.49816 | 34007 ft | 459 kts | 341° |
| 2026-04-29 18:34 | 39.22049 | 9.48252 | 34014 ft | 458 kts | 342° |
| 2026-04-29 18:34 | 39.29290 | 9.46055 | 34009 ft | 457 kts | 342° |
| 2026-04-29 18:35 | 39.35486 | 9.44171 | 34015 ft | 457 kts | 342° |
| 2026-04-29 18:35 | 39.41684 | 9.42284 | 34036 ft | 457 kts | 342° |
| 2026-04-29 18:36 | 39.47863 | 9.40400 | 34038 ft | 456 kts | 343° |
| 2026-04-29 18:36 | 39.54048 | 9.38509 | 34036 ft | 457 kts | 343° |
| 2026-04-29 18:37 | 39.60191 | 9.36628 | 34008 ft | 457 kts | 343° |
| 2026-04-29 18:37 | 39.66376 | 9.34731 | 34019 ft | 457 kts | 343° |
| 2026-04-29 18:38 | 39.72581 | 9.32825 | 34022 ft | 459 kts | 343° |
| 2026-04-29 18:38 | 39.78797 | 9.30911 | 34009 ft | 458 kts | 343° |
| 2026-04-29 18:39 | 39.85004 | 9.28996 | 34017 ft | 459 kts | 343° |
| 2026-04-29 18:39 | 39.91215 | 9.27077 | 34007 ft | 459 kts | 343° |
| 2026-04-29 18:40 | 39.97438 | 9.25150 | 34021 ft | 459 kts | 343° |
| 2026-04-29 18:40 | 40.03657 | 9.23222 | 34007 ft | 459 kts | 343° |
| 2026-04-29 18:41 | 40.16102 | 9.19350 | 34012 ft | 461 kts | 343° |
| 2026-04-29 18:42 | 40.22489 | 9.18439 | 34001 ft | 465 kts | 354° |
| 2026-04-29 18:42 | 40.28950 | 9.17832 | 34004 ft | 465 kts | 353° |
| 2026-04-29 18:43 | 40.35401 | 9.17138 | 33997 ft | 465 kts | 352° |
| 2026-04-29 18:43 | 40.41844 | 9.16430 | 33993 ft | 465 kts | 352° |
| 2026-04-29 18:44 | 40.48285 | 9.15720 | 33995 ft | 465 kts | 352° |
| 2026-04-29 18:44 | 40.54689 | 9.15014 | 34002 ft | 465 kts | 352° |
| 2026-04-29 18:45 | 40.61135 | 9.14301 | 34001 ft | 465 kts | 352° |
| 2026-04-29 18:45 | 40.67589 | 9.13585 | 33990 ft | 465 kts | 352° |
| 2026-04-29 18:46 | 40.74040 | 9.12869 | 33982 ft | 465 kts | 352° |
| 2026-04-29 18:46 | 40.80496 | 9.12151 | 33988 ft | 466 kts | 353° |
| 2026-04-29 18:47 | 40.85908 | 9.11548 | 33985 ft | 466 kts | 353° |
| 2026-04-29 18:47 | 40.92367 | 9.10827 | 33977 ft | 466 kts | 353° |
| 2026-04-29 18:48 | 40.98829 | 9.10104 | 33984 ft | 466 kts | 353° |
| 2026-04-29 18:48 | 41.05242 | 9.09385 | 33977 ft | 465 kts | 353° |
| 2026-04-29 18:49 | 41.11692 | 9.08661 | 33981 ft | 466 kts | 354° |
| 2026-04-29 18:49 | 41.18168 | 9.07932 | 33979 ft | 467 kts | 354° |
| 2026-04-29 18:50 | 41.24643 | 9.07201 | 33977 ft | 468 kts | 354° |
| 2026-04-29 18:50 | 41.31127 | 9.06470 | 33980 ft | 467 kts | 354° |
| 2026-04-29 18:51 | 41.37606 | 9.05736 | 33986 ft | 467 kts | 354° |
| 2026-04-29 18:51 | 41.44075 | 9.05002 | 33991 ft | 466 kts | 354° |
| 2026-04-29 18:52 | 41.50514 | 9.04270 | 33993 ft | 463 kts | 354° |
| 2026-04-29 18:52 | 41.56945 | 9.03538 | 33994 ft | 463 kts | 353° |
| 2026-04-29 18:53 | 41.63373 | 9.02804 | 33994 ft | 463 kts | 353° |
| 2026-04-29 18:53 | 41.69774 | 9.02073 | 33993 ft | 460 kts | 353° |
| 2026-04-29 18:54 | 41.76157 | 9.01341 | 33989 ft | 460 kts | 353° |
| 2026-04-29 18:54 | 41.82491 | 9.00614 | 33994 ft | 460 kts | 353° |
| 2026-04-29 18:55 | 41.88863 | 8.99881 | 33996 ft | 457 kts | 353° |
| 2026-04-29 18:55 | 41.95181 | 8.99153 | 33996 ft | 456 kts | 353° |
| 2026-04-29 18:56 | 42.01504 | 8.98423 | 33991 ft | 456 kts | 353° |
| 2026-04-29 18:56 | 42.07825 | 8.97691 | 33995 ft | 456 kts | 353° |
| 2026-04-29 18:57 | 42.14137 | 8.96960 | 33994 ft | 455 kts | 353° |
| 2026-04-29 18:57 | 42.20441 | 8.96230 | 33991 ft | 455 kts | 353° |
| 2026-04-29 18:58 | 42.26747 | 8.95505 | 33995 ft | 455 kts | 353° |
| 2026-04-29 18:58 | 42.33020 | 8.94784 | 33976 ft | 450 kts | 353° |
| 2026-04-29 18:59 | 42.39260 | 8.94064 | 33974 ft | 451 kts | 353° |
| 2026-04-29 18:59 | 42.45504 | 8.93342 | 33966 ft | 450 kts | 353° |
| 2026-04-29 19:00 | 42.51746 | 8.92619 | 33967 ft | 450 kts | 353° |
| 2026-04-29 19:00 | 42.57990 | 8.91895 | 33963 ft | 450 kts | 353° |
| 2026-04-29 19:01 | 42.64186 | 8.91175 | 33971 ft | 450 kts | 353° |
| 2026-04-29 19:01 | 42.70423 | 8.90448 | 33973 ft | 448 kts | 353° |
| 2026-04-29 19:02 | 42.75618 | 8.89842 | 33967 ft | 447 kts | 353° |
| 2026-04-29 19:02 | 42.82821 | 8.88999 | 33970 ft | 447 kts | 353° |
| 2026-04-29 19:03 | 42.89020 | 8.88273 | 33985 ft | 447 kts | 353° |
| 2026-04-29 19:03 | 42.95193 | 8.87548 | 33976 ft | 444 kts | 353° |
| 2026-04-29 19:04 | 43.01346 | 8.86824 | 33988 ft | 444 kts | 353° |
| 2026-04-29 19:04 | 43.07504 | 8.86098 | 33987 ft | 444 kts | 353° |
| 2026-04-29 19:05 | 43.13660 | 8.85370 | 33990 ft | 444 kts | 353° |
| 2026-04-29 19:05 | 43.19822 | 8.84641 | 33998 ft | 444 kts | 353° |
| 2026-04-29 19:06 | 43.25976 | 8.83911 | 34003 ft | 444 kts | 353° |
| 2026-04-29 19:07 | 43.35208 | 8.82813 | 34006 ft | 443 kts | 353° |
| 2026-04-29 19:07 | 43.41355 | 8.82080 | 34013 ft | 443 kts | 353° |
| 2026-04-29 19:08 | 43.47502 | 8.81346 | 34012 ft | 443 kts | 353° |
| 2026-04-29 19:08 | 43.53638 | 8.80611 | 34018 ft | 442 kts | 353° |
| 2026-04-29 19:09 | 43.59766 | 8.79876 | 34018 ft | 442 kts | 353° |
| 2026-04-29 19:09 | 43.65848 | 8.79145 | 34021 ft | 442 kts | 353° |
| 2026-04-29 19:10 | 43.71967 | 8.78408 | 34031 ft | 441 kts | 353° |
| 2026-04-29 19:10 | 43.78067 | 8.77672 | 34027 ft | 440 kts | 353° |
| 2026-04-29 19:11 | 43.84166 | 8.76934 | 34023 ft | 440 kts | 353° |
| 2026-04-29 19:11 | 43.90268 | 8.76194 | 34043 ft | 440 kts | 352° |
| 2026-04-29 19:12 | 43.96342 | 8.75457 | 33372 ft | 435 kts | 352° |
| 2026-04-29 19:12 | 43.99346 | 8.75091 | 32843 ft | 430 kts | 352° |
| 2026-04-29 19:12 | 44.02269 | 8.74736 | 32372 ft | 424 kts | 352° |
| 2026-04-29 19:12 | 44.04258 | 8.74493 | 31937 ft | 428 kts | 352° |
| 2026-04-29 19:13 | 44.08234 | 8.74008 | 30809 ft | 436 kts | 352° |
| 2026-04-29 19:13 | 44.11270 | 8.73637 | 30046 ft | 440 kts | 352° |
| 2026-04-29 19:13 | 44.14331 | 8.73263 | 29402 ft | 443 kts | 352° |
| 2026-04-29 19:13 | 44.17400 | 8.72888 | 28839 ft | 443 kts | 352° |
| 2026-04-29 19:14 | 44.20468 | 8.72603 | 28213 ft | 442 kts | 358° |
| 2026-04-29 19:14 | 44.23534 | 8.72717 | 27546 ft | 439 kts | 359° |
| 2026-04-29 19:14 | 44.26570 | 8.72840 | 27011 ft | 434 kts | 359° |
| 2026-04-29 19:14 | 44.29576 | 8.72966 | 26450 ft | 430 kts | 359° |
| 2026-04-29 19:15 | 44.32559 | 8.73092 | 25876 ft | 427 kts | 359° |
| 2026-04-29 19:15 | 44.35522 | 8.73219 | 25313 ft | 425 kts | 359° |
| 2026-04-29 19:15 | 44.38467 | 8.73345 | 24753 ft | 422 kts | 359° |
| 2026-04-29 19:15 | 44.41396 | 8.73471 | 24198 ft | 420 kts | 359° |
| 2026-04-29 19:16 | 44.44314 | 8.73597 | 23643 ft | 418 kts | 359° |
| 2026-04-29 19:16 | 44.47213 | 8.73723 | 22996 ft | 416 kts | 359° |
| 2026-04-29 19:16 | 44.50097 | 8.73848 | 22440 ft | 413 kts | 359° |
| 2026-04-29 19:16 | 44.52948 | 8.73971 | 22011 ft | 406 kts | 359° |
| 2026-04-29 19:17 | 44.55733 | 8.74092 | 21841 ft | 394 kts | 359° |
| 2026-04-29 19:17 | 44.58437 | 8.74209 | 21640 ft | 383 kts | 359° |
| 2026-04-29 19:17 | 44.61046 | 8.74322 | 21469 ft | 369 kts | 359° |
| 2026-04-29 19:17 | 44.63567 | 8.74432 | 21302 ft | 357 kts | 359° |
| 2026-04-29 19:18 | 44.66018 | 8.74538 | 21154 ft | 348 kts | 359° |
| 2026-04-29 19:18 | 44.67607 | 8.74607 | 21047 ft | 342 kts | 359° |
| 2026-04-29 19:18 | 44.70692 | 8.74059 | 20589 ft | 331 kts | 338° |
| 2026-04-29 19:18 | 44.72843 | 8.72956 | 20277 ft | 328 kts | 339° |
| 2026-04-29 19:19 | 44.74978 | 8.71890 | 19950 ft | 325 kts | 339° |
| 2026-04-29 19:19 | 44.77091 | 8.70817 | 19632 ft | 322 kts | 339° |
| 2026-04-29 19:19 | 44.79160 | 8.69756 | 19310 ft | 319 kts | 339° |
| 2026-04-29 19:19 | 44.81238 | 8.68685 | 18997 ft | 317 kts | 339° |
| 2026-04-29 19:20 | 44.83296 | 8.67620 | 18673 ft | 314 kts | 339° |
| 2026-04-29 19:20 | 44.85345 | 8.66559 | 18356 ft | 312 kts | 339° |
| 2026-04-29 19:20 | 44.87375 | 8.65506 | 18008 ft | 310 kts | 339° |
| 2026-04-29 19:20 | 44.89389 | 8.64460 | 17679 ft | 307 kts | 339° |
| 2026-04-29 19:21 | 44.91385 | 8.63423 | 17358 ft | 304 kts | 339° |
| 2026-04-29 19:21 | 44.93354 | 8.62400 | 17048 ft | 300 kts | 339° |
| 2026-04-29 19:21 | 44.95302 | 8.61386 | 16743 ft | 297 kts | 339° |
| 2026-04-29 19:21 | 44.97232 | 8.60381 | 16443 ft | 294 kts | 339° |
| 2026-04-29 19:22 | 44.99167 | 8.59373 | 16129 ft | 299 kts | 339° |
| 2026-04-29 19:22 | 45.01187 | 8.58575 | 15703 ft | 305 kts | 349° |
| 2026-04-29 19:22 | 45.03265 | 8.58032 | 15343 ft | 304 kts | 348° |
| 2026-04-29 19:22 | 45.05336 | 8.57451 | 14956 ft | 304 kts | 348° |
| 2026-04-29 19:23 | 45.07412 | 8.56852 | 14557 ft | 305 kts | 347° |
| 2026-04-29 19:23 | 45.09502 | 8.56276 | 14116 ft | 307 kts | 348° |
| 2026-04-29 19:23 | 45.11608 | 8.55702 | 13654 ft | 309 kts | 348° |
| 2026-04-29 19:23 | 45.13722 | 8.55120 | 13200 ft | 308 kts | 348° |
| 2026-04-29 19:24 | 45.15818 | 8.54550 | 12809 ft | 304 kts | 351° |
| 2026-04-29 19:24 | 45.17907 | 8.54526 | 12618 ft | 301 kts | 6° |
| 2026-04-29 19:24 | 45.20040 | 8.54855 | 12519 ft | 313 kts | 4° |
| 2026-04-29 19:24 | 45.22163 | 8.55150 | 12311 ft | 302 kts | 4° |
| 2026-04-29 19:25 | 45.24227 | 8.55425 | 12064 ft | 293 kts | 4° |
| 2026-04-29 19:25 | 45.26242 | 8.55686 | 11700 ft | 289 kts | 4° |
| 2026-04-29 19:25 | 45.28247 | 8.55941 | 11263 ft | 289 kts | 4° |
| 2026-04-29 19:25 | 45.30234 | 8.56191 | 10888 ft | 286 kts | 4° |
| 2026-04-29 19:26 | 45.32208 | 8.56439 | 10503 ft | 283 kts | 4° |
| 2026-04-29 19:26 | 45.34171 | 8.56685 | 10044 ft | 283 kts | 4° |
| 2026-04-29 19:26 | 45.36138 | 8.56932 | 9580 ft | 283 kts | 4° |
| 2026-04-29 19:26 | 45.38087 | 8.57176 | 9169 ft | 280 kts | 5° |
| 2026-04-29 19:27 | 45.40030 | 8.57421 | 8704 ft | 280 kts | 4° |
| 2026-04-29 19:27 | 45.41965 | 8.57664 | 8253 ft | 279 kts | 5° |
| 2026-04-29 19:27 | 45.43897 | 8.57907 | 7848 ft | 278 kts | 5° |
| 2026-04-29 19:27 | 45.45823 | 8.58150 | 7359 ft | 277 kts | 5° |
| 2026-04-29 19:28 | 45.47759 | 8.58393 | 6855 ft | 281 kts | 5° |
| 2026-04-29 19:28 | 45.49698 | 8.58637 | 6473 ft | 279 kts | 5° |
| 2026-04-29 19:28 | 45.51638 | 8.58881 | 6020 ft | 279 kts | 6° |
| 2026-04-29 19:28 | 45.53546 | 8.59121 | 5598 ft | 278 kts | 6° |
| 2026-04-29 19:29 | 45.55458 | 8.59362 | 5257 ft | 275 kts | 6° |
| 2026-04-29 19:29 | 45.57376 | 8.59605 | 4876 ft | 272 kts | 6° |
| 2026-04-29 19:29 | 45.59201 | 8.59835 | 4772 ft | 259 kts | 6° |
| 2026-04-29 19:29 | 45.60982 | 8.60061 | 4784 ft | 260 kts | 7° |
| 2026-04-29 19:30 | 45.62811 | 8.60227 | 4663 ft | 266 kts | 358° |
| 2026-04-29 19:30 | 45.64598 | 8.59782 | 4583 ft | 251 kts | 349° |
| 2026-04-29 19:30 | 45.66267 | 8.59301 | 4555 ft | 241 kts | 349° |
| 2026-04-29 19:30 | 45.67909 | 8.58835 | 4527 ft | 239 kts | 349° |
| 2026-04-29 19:31 | 45.69541 | 8.58377 | 4517 ft | 239 kts | 349° |
| 2026-04-29 19:31 | 45.71165 | 8.57921 | 4518 ft | 234 kts | 349° |
| 2026-04-29 19:31 | 45.72705 | 8.57491 | 4522 ft | 215 kts | 349° |
| 2026-04-29 19:31 | 45.74132 | 8.57093 | 4544 ft | 208 kts | 350° |
| 2026-04-29 19:32 | 45.75547 | 8.57218 | 4475 ft | 204 kts | 22° |
| 2026-04-29 19:32 | 45.76666 | 8.58409 | 4484 ft | 202 kts | 54° |
| 2026-04-29 19:32 | 45.77211 | 8.60245 | 4524 ft | 201 kts | 82° |
| 2026-04-29 19:32 | 45.77290 | 8.62246 | 4553 ft | 202 kts | 89° |
| 2026-04-29 19:33 | 45.77309 | 8.64254 | 4535 ft | 202 kts | 90° |
| 2026-04-29 19:33 | 45.77312 | 8.66267 | 4520 ft | 202 kts | 91° |
| 2026-04-29 19:33 | 45.76965 | 8.68163 | 4498 ft | 197 kts | 122° |
| 2026-04-29 19:33 | 45.76019 | 8.69429 | 4473 ft | 176 kts | 153° |
| 2026-04-29 19:34 | 45.74882 | 8.69787 | 4489 ft | 166 kts | 179° |
| 2026-04-29 19:34 | 45.73736 | 8.69969 | 4574 ft | 166 kts | 163° |
| 2026-04-29 19:34 | 45.73000 | 8.70257 | 4581 ft | 166 kts | 163° |
| 2026-04-29 19:34 | 45.71881 | 8.70659 | 4548 ft | 166 kts | 168° |
| 2026-04-29 19:35 | 45.70744 | 8.70901 | 4511 ft | 165 kts | 163° |
| 2026-04-29 19:35 | 45.69856 | 8.71838 | 4438 ft | 160 kts | 121° |
| 2026-04-29 19:35 | 45.69403 | 8.73177 | 4565 ft | 164 kts | 114° |